createdAt,value
2023-01-17T00:01:33.900Z,2.96
2023-01-17T00:04:20.417Z,2.95
2023-01-17T00:07:05.444Z,2.96
2023-01-17T00:09:51.103Z,2.96
2023-01-17T00:12:17.891Z,2.97
2023-01-17T00:14:44.651Z,2.97
2023-01-17T00:17:11.272Z,2.97
2023-01-17T00:19:56.511Z,2.95
2023-01-17T00:22:47.277Z,2.95
2023-01-17T00:25:35.192Z,2.96
2023-01-17T00:28:03.848Z,2.96
2023-01-17T00:30:30.923Z,2.96
2023-01-17T00:32:57.284Z,2.96
2023-01-17T00:35:25.843Z,2.96
2023-01-17T00:38:10.413Z,2.95
2023-01-17T00:40:39.157Z,2.96
2023-01-17T00:43:25.600Z,2.96
2023-01-17T00:46:10.908Z,2.95
2023-01-17T00:48:56.482Z,2.96
2023-01-17T00:51:42.869Z,2.95
2023-01-17T00:54:28.832Z,2.96
2023-01-17T00:57:14.800Z,2.96
2023-01-17T01:00:00.378Z,2.97
2023-01-17T01:02:46.058Z,2.98
2023-01-17T01:05:31.901Z,3.01
2023-01-17T01:08:17.277Z,3.00
2023-01-17T01:11:03.707Z,3.01
2023-01-17T01:13:50.418Z,2.99
2023-01-17T01:16:36.782Z,3.00
2023-01-17T01:19:23.619Z,2.98
2023-01-17T01:22:08.541Z,2.98
2023-01-17T01:24:53.505Z,2.97
2023-01-17T01:27:38.359Z,2.97
2023-01-17T01:30:23.707Z,2.97
2023-01-17T01:33:08.853Z,2.97
2023-01-17T01:35:36.785Z,2.95
2023-01-17T01:38:03.847Z,2.95
2023-01-17T01:40:30.521Z,2.94
2023-01-17T01:42:58.311Z,2.93
2023-01-17T01:45:30.691Z,2.90
2023-01-17T01:48:23.470Z,2.88
2023-01-17T01:50:51.033Z,2.84
2023-01-17T01:53:20.754Z,2.82
2023-01-17T01:55:49.689Z,2.81
2023-01-17T01:58:24.956Z,2.80
2023-01-17T02:00:51.794Z,2.78
2023-01-17T02:03:24.242Z,2.76
2023-01-17T02:05:52.061Z,2.73
2023-01-17T02:08:22.748Z,2.71
2023-01-17T02:10:50.680Z,2.70
2023-01-17T02:13:20.698Z,2.68
2023-01-17T02:16:06.861Z,2.69
2023-01-17T02:19:11.935Z,2.71
2023-01-17T02:21:54.559Z,2.69
2023-01-17T02:24:30.075Z,2.69
2023-01-17T02:27:01.594Z,2.68
2023-01-17T02:29:58.958Z,2.69
2023-01-17T02:32:40.772Z,2.69
2023-01-17T02:35:29.772Z,2.70
2023-01-17T02:38:28.285Z,2.70
2023-01-17T02:41:03.091Z,2.69
2023-01-17T02:43:30.068Z,2.70
2023-01-17T02:45:56.574Z,2.69
2023-01-17T02:48:26.610Z,2.69
2023-01-17T02:51:22.558Z,2.68
2023-01-17T02:53:55.123Z,2.67
2023-01-17T02:56:34.403Z,2.68
2023-01-17T02:59:20.982Z,2.68
2023-01-17T03:01:56.523Z,2.68
2023-01-17T03:04:51.186Z,2.69
2023-01-17T03:07:23.632Z,2.69
2023-01-17T03:09:56.161Z,2.70
2023-01-17T03:12:22.674Z,2.71
2023-01-17T03:14:49.277Z,2.73
2023-01-17T03:17:16.389Z,2.73
2023-01-17T03:19:43.252Z,2.75
2023-01-17T03:22:09.949Z,2.77
2023-01-17T03:24:36.420Z,2.77
2023-01-17T03:27:02.897Z,2.77
2023-01-17T03:29:29.718Z,2.76
2023-01-17T03:31:56.257Z,2.77
2023-01-17T03:34:22.926Z,2.78
2023-01-17T03:36:49.745Z,2.77
2023-01-17T03:39:16.278Z,2.78
2023-01-17T03:41:42.792Z,2.80
2023-01-17T03:44:09.488Z,2.81
2023-01-17T03:46:36.728Z,2.80
2023-01-17T03:49:03.098Z,2.81
2023-01-17T03:51:29.841Z,2.79
2023-01-17T03:53:56.543Z,2.79
2023-01-17T03:56:23.060Z,2.79
2023-01-17T03:58:49.712Z,2.82
2023-01-17T04:01:16.326Z,2.82
2023-01-17T04:03:42.925Z,2.83
2023-01-17T04:06:09.678Z,2.84
2023-01-17T04:08:36.440Z,2.85
2023-01-17T04:11:03.077Z,2.85
2023-01-17T04:13:29.792Z,2.85
2023-01-17T04:15:56.374Z,2.85
2023-01-17T04:18:24.213Z,2.84
2023-01-17T04:20:51.487Z,2.84
2023-01-17T04:23:18.436Z,2.87
2023-01-17T04:25:45.068Z,2.88
2023-01-17T04:28:12.403Z,2.90
2023-01-17T04:30:38.878Z,2.90
2023-01-17T04:33:05.903Z,2.90
2023-01-17T04:35:33.468Z,2.90
2023-01-17T04:38:00.533Z,2.89
2023-01-17T04:40:26.933Z,2.88
2023-01-17T04:42:54.555Z,2.88
2023-01-17T04:45:21.596Z,2.89
2023-01-17T04:47:48.025Z,2.90
2023-01-17T04:50:14.883Z,2.90
2023-01-17T04:52:41.385Z,2.91
2023-01-17T04:55:08.322Z,2.93
2023-01-17T04:57:35.039Z,2.93
2023-01-17T05:00:01.716Z,2.93
2023-01-17T05:02:28.258Z,2.94
2023-01-17T05:04:54.762Z,2.96
2023-01-17T05:07:21.353Z,2.95
2023-01-17T05:09:47.964Z,2.97
2023-01-17T05:12:14.832Z,2.98
2023-01-17T05:14:41.433Z,3.00
2023-01-17T05:17:07.995Z,3.01
2023-01-17T05:19:36.899Z,2.99
2023-01-17T05:22:04.011Z,2.97
2023-01-17T05:24:33.403Z,2.93
2023-01-17T05:27:03.171Z,2.89
2023-01-17T05:29:30.738Z,2.87
2023-01-17T05:31:57.466Z,2.85
2023-01-17T05:34:24.271Z,2.83
2023-01-17T05:36:51.252Z,2.79
2023-01-17T05:39:18.417Z,2.77
2023-01-17T05:41:44.971Z,2.74
2023-01-17T05:44:11.552Z,2.70
2023-01-17T05:46:38.111Z,2.68
2023-01-17T05:49:04.877Z,2.65
2023-01-17T05:51:31.439Z,2.59
2023-01-17T05:53:58.003Z,2.58
2023-01-17T05:56:24.817Z,2.50
2023-01-17T05:58:51.337Z,2.48
2023-01-17T06:01:17.834Z,2.40
2023-01-17T06:03:44.391Z,2.36
2023-01-17T06:06:11.275Z,2.33
2023-01-17T06:08:37.715Z,2.32
2023-01-17T06:11:04.306Z,2.30
2023-01-17T06:13:33.503Z,2.29
2023-01-17T06:16:04.142Z,2.32
2023-01-17T06:18:31.634Z,2.31
2023-01-17T06:20:58.364Z,2.33
2023-01-17T06:23:25.638Z,2.34
2023-01-17T06:25:52.254Z,2.33
2023-01-17T06:28:21.334Z,2.36
2023-01-17T06:30:48.427Z,2.38
2023-01-17T06:33:15.179Z,2.42
2023-01-17T06:35:48.479Z,2.43
2023-01-17T06:38:15.241Z,2.39
2023-01-17T06:40:42.463Z,2.40
2023-01-17T06:43:09.134Z,2.39
2023-01-17T06:45:36.376Z,2.39
2023-01-17T06:48:04.119Z,2.38
2023-01-17T06:50:33.502Z,2.37
2023-01-17T06:53:02.752Z,2.37
2023-01-17T06:55:30.884Z,2.33
2023-01-17T06:57:59.574Z,2.31
2023-01-17T07:00:27.418Z,2.31
2023-01-17T07:02:54.594Z,2.28
2023-01-17T07:05:21.575Z,2.26
2023-01-17T07:07:48.372Z,2.22
2023-01-17T07:10:16.168Z,2.18
2023-01-17T07:12:42.787Z,2.16
2023-01-17T07:15:10.118Z,2.12
2023-01-17T07:17:36.699Z,2.09
2023-01-17T07:20:03.533Z,2.10
2023-01-17T07:22:30.290Z,2.09
2023-01-17T07:24:58.578Z,2.04
2023-01-17T07:27:29.764Z,2.02
2023-01-17T07:29:57.273Z,2.02
2023-01-17T07:32:26.838Z,1.97
2023-01-17T07:34:54.802Z,1.97
2023-01-17T07:37:21.988Z,1.94
2023-01-17T07:39:49.255Z,1.94
2023-01-17T07:42:16.144Z,1.94
2023-01-17T07:44:44.003Z,1.95
2023-01-17T07:47:11.394Z,1.94
2023-01-17T07:49:37.934Z,1.94
2023-01-17T07:52:07.306Z,1.94
2023-01-17T07:54:33.871Z,1.96
2023-01-17T07:57:01.298Z,1.97
2023-01-17T07:59:27.858Z,1.97
2023-01-17T08:01:54.753Z,1.99
2023-01-17T08:04:21.473Z,2.00
2023-01-17T08:06:50.712Z,2.01
2023-01-17T08:09:17.247Z,2.03
2023-01-17T08:11:43.713Z,2.05
2023-01-17T08:14:10.532Z,2.07
2023-01-17T08:16:38.045Z,2.08
2023-01-17T08:19:04.698Z,2.11
2023-01-17T08:21:31.327Z,2.11
2023-01-17T08:23:57.837Z,2.13
2023-01-17T08:26:25.466Z,2.15
2023-01-17T08:29:02.832Z,2.17
2023-01-17T08:31:34.991Z,2.20
2023-01-17T08:34:01.574Z,2.22
2023-01-17T08:36:28.790Z,2.21
2023-01-17T08:38:55.616Z,2.26
2023-01-17T08:41:23.674Z,2.28
2023-01-17T08:43:52.014Z,2.30
2023-01-17T08:46:19.500Z,2.32
2023-01-17T08:48:46.483Z,2.35
2023-01-17T08:51:13.745Z,2.38
2023-01-17T08:53:40.748Z,2.37
2023-01-17T08:56:07.282Z,2.38
2023-01-17T08:58:35.075Z,2.41
2023-01-17T09:01:03.552Z,2.42
2023-01-17T09:03:31.661Z,2.44
2023-01-17T09:06:17.627Z,2.47
2023-01-17T09:08:47.791Z,2.47
2023-01-17T09:11:16.805Z,2.55
2023-01-17T09:13:46.308Z,2.59
2023-01-17T09:16:13.055Z,2.58
2023-01-17T09:18:39.816Z,2.57
2023-01-17T09:21:15.112Z,2.55
2023-01-17T09:23:41.966Z,2.53
2023-01-17T09:26:22.571Z,2.49
2023-01-17T09:28:49.200Z,2.43
2023-01-17T09:31:17.607Z,2.41
2023-01-17T09:33:44.574Z,2.38
2023-01-17T09:36:11.398Z,2.39
2023-01-17T09:38:38.637Z,2.42
2023-01-17T09:41:21.988Z,2.41
2023-01-17T09:43:56.795Z,2.43
2023-01-17T09:46:27.904Z,2.43
2023-01-17T09:49:14.604Z,2.45
2023-01-17T09:51:42.475Z,2.45
2023-01-17T09:54:21.913Z,2.47
2023-01-17T09:57:34.828Z,2.50
2023-01-17T10:00:16.740Z,2.51
2023-01-17T10:03:08.416Z,2.50
2023-01-17T10:05:48.683Z,2.47
2023-01-17T10:08:55.411Z,2.42
2023-01-17T10:11:44.650Z,2.38
2023-01-17T10:14:30.140Z,2.34
2023-01-17T10:17:09.124Z,2.32
2023-01-17T10:19:57.370Z,2.28
2023-01-17T10:22:52.145Z,2.23
2023-01-17T10:25:33.633Z,2.18
2023-01-17T10:28:12.475Z,2.18
2023-01-17T10:31:00.942Z,2.21
2023-01-17T10:33:35.982Z,2.25
2023-01-17T10:36:11.414Z,2.26
2023-01-17T10:38:38.822Z,2.30
2023-01-17T10:41:15.965Z,2.34
2023-01-17T10:43:51.713Z,2.36
2023-01-17T10:46:38.758Z,2.35
2023-01-17T10:49:05.596Z,2.35
2023-01-17T10:51:49.759Z,2.35
2023-01-17T10:54:36.021Z,2.35
2023-01-17T10:57:02.851Z,2.36
2023-01-17T10:59:34.374Z,2.37
2023-01-17T11:02:07.332Z,2.36
2023-01-17T11:04:36.538Z,2.37
2023-01-17T11:07:11.235Z,2.38
2023-01-17T11:09:49.848Z,2.41
2023-01-17T11:12:20.985Z,2.43
2023-01-17T11:14:58.031Z,2.46
2023-01-17T11:17:25.042Z,2.50
2023-01-17T11:19:51.602Z,2.56
2023-01-17T11:22:18.700Z,2.61
2023-01-17T11:24:53.248Z,2.64
2023-01-17T11:27:31.858Z,2.68
2023-01-17T11:30:18.283Z,2.67
2023-01-17T11:32:57.222Z,2.65
2023-01-17T11:35:27.772Z,2.62
2023-01-17T11:38:20.000Z,2.59
2023-01-17T11:40:48.402Z,2.56
2023-01-17T11:43:26.649Z,2.60
2023-01-17T11:46:04.443Z,2.62
2023-01-17T11:48:36.873Z,2.64
2023-01-17T11:51:06.850Z,2.66
2023-01-17T11:53:38.198Z,2.64
2023-01-17T11:56:05.911Z,2.61
2023-01-17T11:58:38.489Z,2.58
2023-01-17T12:01:23.819Z,2.56
2023-01-17T12:04:04.773Z,2.55
2023-01-17T12:06:56.774Z,2.48
2023-01-17T12:09:27.442Z,2.42
2023-01-17T12:12:24.985Z,2.41
2023-01-17T12:15:14.854Z,2.38
2023-01-17T12:17:55.081Z,2.36
2023-01-17T12:20:51.962Z,2.37
2023-01-17T12:23:49.689Z,2.45
2023-01-17T12:26:29.127Z,2.50
2023-01-17T12:29:22.943Z,2.58
2023-01-17T12:32:26.751Z,2.49
2023-01-17T12:35:00.703Z,2.39
2023-01-17T12:37:36.520Z,2.29
2023-01-17T12:40:15.498Z,2.22
2023-01-17T12:42:48.865Z,2.19
2023-01-17T12:45:26.759Z,2.19
2023-01-17T12:48:00.663Z,2.21
2023-01-17T12:50:31.643Z,2.22
2023-01-17T12:53:16.516Z,2.22
2023-01-17T12:55:58.504Z,2.27
2023-01-17T12:58:30.997Z,2.35
2023-01-17T13:01:20.209Z,2.45
2023-01-17T13:04:18.281Z,2.51
2023-01-17T13:06:47.125Z,2.56
2023-01-17T13:09:19.763Z,2.62
2023-01-17T13:11:51.724Z,2.68
2023-01-17T13:14:18.453Z,2.70
2023-01-17T13:16:54.704Z,2.73
2023-01-17T13:19:36.625Z,2.74
2023-01-17T13:22:07.249Z,2.75
2023-01-17T13:24:53.515Z,2.78
2023-01-17T13:27:43.408Z,2.82
2023-01-17T13:30:45.835Z,2.81
2023-01-17T13:33:44.855Z,2.79
2023-01-17T13:36:38.891Z,2.77
2023-01-17T13:39:24.118Z,2.77
2023-01-17T13:41:57.099Z,2.75
2023-01-17T13:44:27.198Z,2.67
2023-01-17T13:46:55.200Z,2.60
2023-01-17T13:49:35.372Z,2.56
2023-01-17T13:52:12.353Z,2.55
2023-01-17T13:54:50.826Z,2.52
2023-01-17T13:57:29.359Z,2.53
2023-01-17T13:59:58.360Z,2.52
2023-01-17T14:02:36.379Z,2.54
2023-01-17T14:05:18.048Z,2.54
2023-01-17T14:07:57.137Z,2.53
2023-01-17T14:10:41.392Z,2.52
2023-01-17T14:13:41.445Z,2.50
2023-01-17T14:16:28.876Z,2.44
2023-01-17T14:18:58.051Z,2.38
2023-01-17T14:21:35.800Z,2.35
2023-01-17T14:24:16.281Z,2.33
2023-01-17T14:26:59.512Z,2.32
2023-01-17T14:29:56.788Z,2.30
2023-01-17T14:32:36.360Z,2.26
2023-01-17T14:35:04.810Z,2.25
2023-01-17T14:37:44.616Z,2.25
2023-01-17T14:40:30.769Z,2.24
2023-01-17T14:43:15.913Z,2.23
2023-01-17T14:45:43.514Z,2.21
2023-01-17T14:48:22.520Z,2.18
2023-01-17T14:50:54.547Z,2.17
2023-01-17T14:53:22.807Z,2.17
2023-01-17T14:55:49.782Z,2.19
2023-01-17T14:58:26.897Z,2.20
2023-01-17T15:00:58.555Z,2.19
2023-01-17T15:03:25.611Z,2.16
2023-01-17T15:05:54.229Z,2.08
2023-01-17T15:08:25.507Z,1.96
2023-01-17T15:11:02.997Z,1.84
2023-01-17T15:13:43.871Z,1.74
2023-01-17T15:16:41.188Z,1.66
2023-01-17T15:19:13.752Z,1.60
2023-01-17T15:21:43.254Z,1.56
2023-01-17T15:24:19.675Z,1.53
2023-01-17T15:26:46.797Z,1.49
2023-01-17T15:29:18.862Z,1.45
2023-01-17T15:31:57.277Z,1.42
2023-01-17T15:34:31.026Z,1.38
2023-01-17T15:37:04.888Z,1.30
2023-01-17T15:39:35.684Z,1.26
2023-01-17T15:42:06.668Z,1.23
2023-01-17T15:44:48.374Z,1.19
2023-01-17T15:47:48.945Z,1.19
2023-01-17T15:50:22.302Z,1.17
2023-01-17T15:52:50.650Z,1.16
2023-01-17T15:55:38.710Z,1.19
2023-01-17T15:58:22.867Z,1.18
2023-01-17T16:00:49.750Z,1.19
2023-01-17T16:03:22.596Z,1.22
2023-01-17T16:05:50.737Z,1.21
2023-01-17T16:08:24.636Z,1.21
2023-01-17T16:10:57.966Z,1.21
2023-01-17T16:13:25.157Z,1.20
2023-01-17T16:15:51.597Z,1.19
2023-01-17T16:18:20.240Z,1.19
2023-01-17T16:20:53.924Z,1.18
2023-01-17T16:23:20.903Z,1.18
2023-01-17T16:25:47.976Z,1.16
2023-01-17T16:28:17.686Z,1.16
2023-01-17T16:30:44.748Z,1.14
2023-01-17T16:33:11.992Z,1.09
2023-01-17T16:35:40.091Z,1.07
2023-01-17T16:38:11.479Z,1.06
2023-01-17T16:40:44.376Z,1.04
2023-01-17T16:43:12.147Z,1.04
2023-01-17T16:45:47.041Z,1.02
2023-01-17T16:48:14.619Z,1.02
2023-01-17T16:50:47.895Z,1.01
2023-01-17T16:53:15.361Z,1.00
2023-01-17T16:55:43.991Z,0.98
2023-01-17T16:58:12.994Z,0.96
2023-01-17T17:00:40.365Z,0.93
2023-01-17T17:03:07.231Z,0.92
2023-01-17T17:05:34.786Z,0.92
2023-01-17T17:08:01.530Z,0.91
2023-01-17T17:10:27.969Z,0.92
2023-01-17T17:12:55.318Z,0.91
2023-01-17T17:15:21.794Z,0.92
2023-01-17T17:17:48.554Z,0.95
2023-01-17T17:20:16.115Z,0.95
2023-01-17T17:22:44.090Z,0.95
2023-01-17T17:25:15.828Z,0.95
2023-01-17T17:27:42.814Z,0.93
2023-01-17T17:30:10.728Z,0.92
2023-01-17T17:32:37.345Z,0.91
2023-01-17T17:35:04.362Z,0.90
2023-01-17T17:37:32.030Z,0.89
2023-01-17T17:39:58.611Z,0.86
2023-01-17T17:42:25.653Z,0.83
2023-01-17T17:44:52.264Z,0.81
2023-01-17T17:47:18.847Z,0.79
2023-01-17T17:49:45.496Z,0.79
2023-01-17T17:52:12.140Z,0.76
2023-01-17T17:54:38.584Z,0.74
2023-01-17T17:57:07.807Z,0.72
2023-01-17T17:59:34.812Z,0.70
2023-01-17T18:02:01.527Z,0.68
2023-01-17T18:04:27.993Z,0.66
2023-01-17T18:06:58.023Z,0.61
2023-01-17T18:09:24.872Z,0.61
2023-01-17T18:11:51.478Z,0.60
2023-01-17T18:14:20.915Z,0.59
2023-01-17T18:16:48.570Z,0.55
2023-01-17T18:19:18.810Z,0.55
2023-01-17T18:21:45.715Z,0.52
2023-01-17T18:24:14.819Z,0.50
2023-01-17T18:26:50.126Z,0.49
2023-01-17T18:29:19.548Z,0.48
2023-01-17T18:31:47.396Z,0.47
2023-01-17T18:34:17.694Z,0.45
2023-01-17T18:36:44.912Z,0.45
2023-01-17T18:39:14.765Z,0.43
2023-01-17T18:41:41.367Z,0.42
2023-01-17T18:44:08.556Z,0.42
2023-01-17T18:46:36.192Z,0.40
2023-01-17T18:49:06.221Z,0.38
2023-01-17T18:51:34.692Z,0.37
2023-01-17T18:54:05.890Z,0.36
2023-01-17T18:56:36.465Z,0.36
2023-01-17T18:59:05.700Z,0.35
2023-01-17T19:01:35.468Z,0.34
2023-01-17T19:04:04.444Z,0.34
2023-01-17T19:06:41.620Z,0.34
2023-01-17T19:09:10.579Z,0.32
2023-01-17T19:11:38.022Z,0.30
2023-01-17T19:14:06.104Z,0.30
2023-01-17T19:16:35.794Z,0.30
2023-01-17T19:19:15.160Z,0.27
2023-01-17T19:21:42.734Z,0.26
2023-01-17T19:24:10.816Z,0.24
2023-01-17T19:26:37.364Z,0.25
2023-01-17T19:29:05.134Z,0.24
2023-01-17T19:31:35.990Z,0.23
2023-01-17T19:34:02.706Z,0.20
2023-01-17T19:36:33.894Z,0.20
2023-01-17T19:39:05.677Z,0.17
2023-01-17T19:41:35.483Z,0.15
2023-01-17T19:44:05.125Z,0.13
2023-01-17T19:46:32.389Z,0.11
2023-01-17T19:48:59.675Z,0.09
2023-01-17T19:51:26.866Z,0.09
2023-01-17T19:53:56.490Z,0.08
2023-01-17T19:56:25.499Z,0.07
2023-01-17T19:58:52.532Z,0.05
2023-01-17T20:01:20.824Z,0.04
2023-01-17T20:03:51.269Z,0.00
2023-01-17T20:06:20.788Z,-0.02
2023-01-17T20:08:47.392Z,-0.05
2023-01-17T20:11:19.944Z,-0.06
2023-01-17T20:13:47.859Z,-0.10
2023-01-17T20:16:16.852Z,-0.12
2023-01-17T20:18:43.769Z,-0.13
2023-01-17T20:21:13.577Z,-0.15
2023-01-17T20:23:46.805Z,-0.16
2023-01-17T20:26:46.513Z,-0.17
2023-01-17T20:29:15.495Z,-0.20
2023-01-17T20:31:43.476Z,-0.21
2023-01-17T20:34:12.756Z,-0.25
2023-01-17T20:36:41.652Z,-0.27
2023-01-17T20:39:08.780Z,-0.29
2023-01-17T20:41:39.788Z,-0.30
2023-01-17T20:44:07.778Z,-0.30
2023-01-17T20:46:40.531Z,-0.29
2023-01-17T20:49:13.649Z,-0.30
2023-01-17T20:51:40.649Z,-0.35
2023-01-17T20:54:12.878Z,-0.39
2023-01-17T20:56:40.299Z,-0.40
2023-01-17T20:59:09.695Z,-0.42
2023-01-17T21:01:37.088Z,-0.42
2023-01-17T21:04:04.702Z,-0.45
2023-01-17T21:06:31.251Z,-0.45
2023-01-17T21:09:00.908Z,-0.47
2023-01-17T21:11:27.860Z,-0.48
2023-01-17T21:13:57.363Z,-0.49
2023-01-17T21:16:24.122Z,-0.52
2023-01-17T21:18:51.821Z,-0.54
2023-01-17T21:21:21.995Z,-0.55
2023-01-17T21:23:50.161Z,-0.55
2023-01-17T21:26:18.352Z,-0.55
2023-01-17T21:28:47.488Z,-0.57
2023-01-17T21:31:24.666Z,-0.57
2023-01-17T21:33:52.549Z,-0.60
2023-01-17T21:36:20.667Z,-0.61
2023-01-17T21:38:52.133Z,-0.61
2023-01-17T21:41:20.663Z,-0.65
2023-01-17T21:43:47.886Z,-0.68
2023-01-17T21:46:14.677Z,-0.70
2023-01-17T21:48:41.297Z,-0.70
2023-01-17T21:51:08.768Z,-0.71
2023-01-17T21:53:36.807Z,-0.73
2023-01-17T21:56:23.797Z,-0.75
2023-01-17T21:58:54.520Z,-0.77
2023-01-17T22:01:23.762Z,-0.79
2023-01-17T22:03:51.698Z,-0.83
2023-01-17T22:06:19.821Z,-0.83
2023-01-17T22:08:46.554Z,-0.84
2023-01-17T22:11:15.882Z,-0.86
2023-01-17T22:13:43.682Z,-0.86
2023-01-17T22:16:13.598Z,-0.86
2023-01-17T22:18:42.710Z,-0.85
2023-01-17T22:21:13.673Z,-0.86
2023-01-17T22:23:45.491Z,-0.89
2023-01-17T22:26:11.964Z,-0.93
2023-01-17T22:28:39.585Z,-0.95
2023-01-17T22:31:08.835Z,-0.97
2023-01-17T22:33:36.482Z,-0.99
2023-01-17T22:36:03.228Z,-0.99
2023-01-17T22:38:30.355Z,-1.00
2023-01-17T22:41:07.688Z,-1.03
2023-01-17T22:43:41.545Z,-1.06
2023-01-17T22:46:10.997Z,-1.05
2023-01-17T22:48:38.750Z,-1.07
2023-01-17T22:51:07.595Z,-1.09
2023-01-17T22:53:34.763Z,-1.08
2023-01-17T22:56:05.293Z,-1.10
2023-01-17T22:58:32.449Z,-1.15
2023-01-17T23:01:09.626Z,-1.15
2023-01-17T23:03:36.564Z,-1.18
2023-01-17T23:06:12.230Z,-1.22
2023-01-17T23:08:40.757Z,-1.27
2023-01-17T23:11:39.152Z,-1.32
2023-01-17T23:14:09.017Z,-1.38
2023-01-17T23:16:55.548Z,-1.43
2023-01-17T23:19:22.441Z,-1.45
2023-01-17T23:22:14.995Z,-1.46
2023-01-17T23:24:48.870Z,-1.51
2023-01-17T23:27:38.716Z,-1.52
2023-01-17T23:30:11.095Z,-1.56
2023-01-17T23:32:39.571Z,-1.60
2023-01-17T23:35:06.923Z,-1.60
2023-01-17T23:37:52.135Z,-1.65
2023-01-17T23:40:19.264Z,-1.65
2023-01-17T23:43:04.481Z,-1.65
2023-01-17T23:45:35.009Z,-1.65
2023-01-17T23:48:01.932Z,-1.66
2023-01-17T23:50:30.792Z,-1.70
2023-01-17T23:52:57.715Z,-1.69
2023-01-17T23:55:27.372Z,-1.69
2023-01-17T23:57:54.858Z,-1.68
